Melrude, Minnesota
Current Conditions -  °F | °C
As of 12:11 AM on Thursday 23 Oct 2014 (Local Time) from KEVM Reporting Station
Scattered Clouds Scattered Clouds  
Wind Chill: 44°   Ceiling: Unl
Heat Index: 46°   Visibility: 10mi
Dew Point: 36°   Wind: 5mph
Humidity: 66%   Direction: 170°S
Pressure: 29.99"   Gusts: NA
Location:  47.25°N, 92.42°W
Report Text: KEVM 230511Z AUTO 17004KT 10SM SCT070 SCT090 08/02 A2999 RMK AO2
Loading
Personal Weather Stations






























Interactive Weather Map
Tropical Storm Tracking
New forecast layout! Learn more

10-Day Weather Forecast

Advertisements
Track Severe Weather on mobile